Time;durP1;ratioP1;P1;durP2;ratioP2;P2;SDS_P1;SDS_P2;PMS_P1;PMS_P2;Temp;Humidity;BMP_temperature;BMP_pressure;BME280_temperature;BME280_humidity;BME280_pressure;Samples;Min_cycle;Max_cycle;Signal;HPM_P1;HPM_P2
2023/04/20 00:02:01;;;;;;;15.70;7.03;;;1.30;99.90;;;;;;5020089;28;20129;-88
2023/04/20 00:04:28;;;;;;;11.75;6.43;;;1.30;99.90;;;;;;5043548;28;20095;-88
2023/04/20 00:06:55;;;;;;;12.35;7.30;;;1.20;99.90;;;;;;5021139;28;20032;-88
2023/04/20 00:09:22;;;;;;;10.45;6.63;;;1.10;99.90;;;;;;5011791;28;20018;-87
2023/04/20 00:11:53;;;;;;;13.45;6.50;;;1.00;99.90;;;;;;5029274;28;20100;-88
2023/04/20 00:14:19;;;;;;;13.15;7.20;;;0.90;99.90;;;;;;5028550;28;20042;-88
2023/04/20 00:16:45;;;;;;;13.90;7.03;;;0.90;99.90;;;;;;5025654;28;20548;-88
2023/04/20 00:19:11;;;;;;;12.45;8.02;;;0.90;99.90;;;;;;5028333;28;20041;-87
2023/04/20 00:21:37;;;;;;;15.68;7.93;;;0.80;99.90;;;;;;5021974;28;20028;-88
2023/04/20 00:24:03;;;;;;;13.50;7.18;;;0.80;99.90;;;;;;5031198;28;20029;-87
2023/04/20 00:26:29;;;;;;;12.50;7.50;;;0.90;99.90;;;;;;5033209;28;20123;-87
2023/04/20 00:28:56;;;;;;;15.70;7.50;;;0.80;99.90;;;;;;5031903;28;20503;-88
2023/04/20 00:31:22;;;;;;;13.63;8.10;;;0.80;99.90;;;;;;5048220;28;20103;-88
2023/04/20 00:33:48;;;;;;;17.65;8.05;;;0.80;99.90;;;;;;5026063;28;20500;-88
2023/04/20 00:36:13;;;;;;;57.55;18.42;;;0.70;99.90;;;;;;5015645;28;20041;-88
2023/04/20 00:38:39;;;;;;;44.50;15.95;;;0.80;99.90;;;;;;5027209;28;20017;-88
2023/04/20 00:41:05;;;;;;;22.00;9.20;;;0.70;99.90;;;;;;5048208;28;20160;-88
2023/04/20 00:43:31;;;;;;;21.83;9.75;;;0.70;99.90;;;;;;5029939;28;20068;-88
2023/04/20 00:45:56;;;;;;;16.35;7.80;;;0.70;99.90;;;;;;5028553;28;20026;-88
2023/04/20 00:48:22;;;;;;;17.10;8.38;;;0.80;99.90;;;;;;5031355;28;20033;-88
2023/04/20 00:50:49;;;;;;;14.90;7.65;;;0.70;99.90;;;;;;5025673;28;20053;-87
2023/04/20 00:53:15;;;;;;;13.98;7.22;;;0.70;99.90;;;;;;5031076;28;20396;-87
2023/04/20 00:55:42;;;;;;;18.63;7.30;;;0.70;99.90;;;;;;5052254;28;20136;-88
2023/04/20 00:58:11;;;;;;;15.15;6.88;;;0.70;99.90;;;;;;5034856;28;20026;-88
2023/04/20 01:00:39;;;;;;;14.60;8.05;;;0.70;99.90;;;;;;5051720;28;20045;-88
2023/04/20 01:03:06;;;;;;;15.60;7.80;;;0.80;99.90;;;;;;5034536;28;20041;-88
2023/04/20 01:05:32;;;;;;;16.02;7.63;;;0.80;99.90;;;;;;5036689;28;20029;-88
2023/04/20 01:07:58;;;;;;;12.05;8.05;;;0.80;99.90;;;;;;5035351;28;20044;-88
2023/04/20 01:10:26;;;;;;;13.07;6.80;;;0.80;99.90;;;;;;5017143;28;20042;-88
2023/04/20 01:12:52;;;;;;;14.07;7.60;;;0.80;99.90;;;;;;5035767;28;20025;-88
2023/04/20 01:15:17;;;;;;;13.73;7.82;;;0.70;99.90;;;;;;5032447;28;20096;-88
2023/04/20 01:17:45;;;;;;;14.18;7.60;;;0.60;99.90;;;;;;5032927;28;20028;-88
2023/04/20 01:20:11;;;;;;;10.27;6.93;;;0.60;99.90;;;;;;5032368;28;20485;-88
2023/04/20 01:22:57;;;;;;;12.70;7.25;;;0.70;99.90;;;;;;5017786;28;20029;-88
2023/04/20 01:25:23;;;;;;;14.05;7.32;;;0.70;99.90;;;;;;5016038;28;20193;-88
2023/04/20 01:27:48;;;;;;;14.75;8.07;;;0.70;99.90;;;;;;5032175;28;20072;-88
2023/04/20 01:30:14;;;;;;;18.23;7.90;;;0.70;99.90;;;;;;5031157;28;20085;-88
2023/04/20 01:32:40;;;;;;;13.25;7.25;;;0.70;99.90;;;;;;5019437;28;20037;-88
2023/04/20 01:35:07;;;;;;;14.18;7.38;;;0.70;99.90;;;;;;5029357;28;20022;-88
2023/04/20 01:37:32;;;;;;;20.15;8.65;;;0.60;99.90;;;;;;5034073;28;20099;-89
2023/04/20 01:40:12;;;;;;;11.65;7.20;;;0.60;99.90;;;;;;5032300;28;20421;-89
2023/04/20 01:42:38;;;;;;;14.90;8.13;;;0.70;99.90;;;;;;5024298;28;20480;-89
2023/04/20 01:45:07;;;;;;;20.52;9.55;;;0.80;99.90;;;;;;5034267;28;20480;-88
2023/04/20 01:47:34;;;;;;;17.13;8.50;;;1.10;99.90;;;;;;5052058;28;20026;-89
2023/04/20 01:50:00;;;;;;;16.52;8.85;;;1.30;99.90;;;;;;5033599;28;20541;-88
2023/04/20 01:52:26;;;;;;;19.88;9.82;;;1.50;99.90;;;;;;5026353;28;20052;-88
2023/04/20 01:54:51;;;;;;;14.88;8.63;;;1.60;99.90;;;;;;5033598;28;20056;-89
2023/04/20 01:57:17;;;;;;;14.48;8.10;;;1.70;99.90;;;;;;5019956;28;20037;-88
2023/04/20 01:59:42;;;;;;;17.65;8.45;;;1.70;99.90;;;;;;5018577;28;20075;-89
2023/04/20 02:02:08;;;;;;;16.00;8.13;;;1.80;99.90;;;;;;5022947;28;20026;-89
2023/04/20 02:04:34;;;;;;;21.23;8.23;;;1.90;99.90;;;;;;5015057;28;20030;-88
2023/04/20 02:07:03;;;;;;;21.05;8.65;;;1.80;99.90;;;;;;5026448;28;20091;-89
2023/04/20 02:09:29;;;;;;;17.42;8.50;;;1.90;99.90;;;;;;5033104;28;20037;-89
2023/04/20 02:11:55;;;;;;;20.67;9.82;;;1.90;99.90;;;;;;5026841;28;20125;-90
2023/04/20 02:14:21;;;;;;;19.35;9.38;;;2.00;99.90;;;;;;5030382;28;20397;-88
2023/04/20 02:16:46;;;;;;;19.67;9.32;;;2.00;99.90;;;;;;5014010;28;20018;-88
2023/04/20 02:19:12;;;;;;;17.55;8.80;;;2.00;99.90;;;;;;5028982;28;20034;-88
2023/04/20 02:21:38;;;;;;;20.77;10.55;;;2.00;99.90;;;;;;5024632;28;20064;-88
2023/04/20 02:24:05;;;;;;;20.52;10.23;;;1.90;99.90;;;;;;5032955;28;20093;-88
2023/04/20 02:26:30;;;;;;;18.80;9.90;;;1.80;99.90;;;;;;5025424;28;20066;-88
2023/04/20 02:28:56;;;;;;;18.48;9.55;;;1.70;99.90;;;;;;5032836;28;20473;-88
2023/04/20 02:31:22;;;;;;;16.95;9.75;;;1.70;99.90;;;;;;5018710;28;20037;-88
2023/04/20 02:33:48;;;;;;;18.33;9.65;;;1.70;99.90;;;;;;5012484;28;20065;-89
2023/04/20 02:36:14;;;;;;;20.10;10.02;;;1.70;99.90;;;;;;5034872;28;20037;-88
2023/04/20 02:38:40;;;;;;;22.10;10.90;;;1.60;99.90;;;;;;5028631;28;20026;-88
2023/04/20 02:41:06;;;;;;;25.77;11.23;;;1.60;99.90;;;;;;5022952;28;20161;-89
2023/04/20 02:43:35;;;;;;;19.38;10.55;;;1.50;99.90;;;;;;5033036;28;20026;-88
2023/04/20 02:46:01;;;;;;;26.60;10.45;;;1.50;99.90;;;;;;5026774;28;20101;-89
2023/04/20 02:48:27;;;;;;;22.20;11.75;;;1.50;99.90;;;;;;5030832;28;20037;-89
2023/04/20 02:50:55;;;;;;;22.98;11.55;;;1.40;99.90;;;;;;5027280;28;20847;-88
2023/04/20 02:53:23;;;;;;;21.40;11.30;;;1.40;99.90;;;;;;5029932;28;20033;-88
2023/04/20 02:55:57;;;;;;;22.60;11.85;;;1.30;99.90;;;;;;5032212;28;20029;-88
2023/04/20 02:58:32;;;;;;;21.58;12.93;;;1.30;99.90;;;;;;5018928;28;20033;-89
2023/04/20 03:01:21;;;;;;;24.02;10.82;;;1.40;99.90;;;;;;5028349;28;20513;-88
2023/04/20 03:03:49;;;;;;;23.05;11.57;;;1.40;99.90;;;;;;5010229;28;20022;-88
2023/04/20 03:06:15;;;;;;;22.98;11.45;;;1.30;99.90;;;;;;5019584;28;20033;-89
2023/04/20 03:08:46;;;;;;;22.65;12.63;;;1.20;99.90;;;;;;5027983;28;20041;-89
2023/04/20 03:11:32;;;;;;;25.92;12.27;;;1.20;99.90;;;;;;5027629;28;20065;-88
2023/04/20 03:13:58;;;;;;;31.10;12.80;;;1.20;99.90;;;;;;5029138;28;20029;-89
2023/04/20 03:16:23;;;;;;;31.48;12.40;;;1.10;99.90;;;;;;5013069;28;20033;-89
2023/04/20 03:18:51;;;;;;;21.67;13.00;;;1.20;99.90;;;;;;5020643;28;20026;-89
2023/04/20 03:21:17;;;;;;;24.25;13.40;;;1.20;99.90;;;;;;5024839;28;20905;-89
2023/04/20 03:23:43;;;;;;;23.60;12.88;;;1.20;99.90;;;;;;5031650;28;20666;-89
2023/04/20 03:26:11;;;;;;;24.20;11.77;;;1.20;99.90;;;;;;5013485;28;20022;-89
2023/04/20 03:28:57;;;;;;;29.15;12.63;;;1.20;99.90;;;;;;5013166;28;20116;-88
2023/04/20 03:31:25;;;;;;;26.45;13.13;;;1.10;99.90;;;;;;5029153;28;20042;-89
2023/04/20 03:33:53;;;;;;;21.30;12.80;;;1.20;99.90;;;;;;5019088;28;20061;-89
2023/04/20 03:36:19;;;;;;;24.20;12.95;;;1.30;99.90;;;;;;5024701;28;20034;-89
2023/04/20 03:38:45;;;;;;;27.92;12.90;;;1.40;99.90;;;;;;5048890;28;20034;-89
2023/04/20 03:41:10;;;;;;;22.75;12.55;;;1.50;99.90;;;;;;5043736;28;20017;-88
2023/04/20 03:43:37;;;;;;;24.02;12.63;;;1.50;99.90;;;;;;5046530;28;20105;-88
2023/04/20 03:46:04;;;;;;;24.25;12.80;;;1.60;99.90;;;;;;5027789;28;20026;-87
2023/04/20 03:48:30;;;;;;;23.50;12.70;;;1.70;99.90;;;;;;5030772;28;20028;-88
2023/04/20 03:50:55;;;;;;;22.52;12.55;;;1.80;99.90;;;;;;5027148;28;20524;-89
2023/04/20 03:53:22;;;;;;;26.20;12.88;;;1.90;99.90;;;;;;5029799;28;20036;-87
2023/04/20 03:55:48;;;;;;;21.98;12.18;;;2.10;99.90;;;;;;5024927;28;20427;-89
2023/04/20 03:58:19;;;;;;;22.42;11.25;;;2.20;99.90;;;;;;5033089;28;20024;-88
2023/04/20 04:01:08;;;;;;;24.20;11.68;;;2.30;99.90;;;;;;5033757;28;20072;-89
2023/04/20 04:03:37;;;;;;;27.10;11.65;;;2.40;99.90;;;;;;5028685;28;20061;-89
2023/04/20 04:06:03;;;;;;;20.67;11.98;;;2.40;99.90;;;;;;5049165;28;20025;-89
2023/04/20 04:08:39;;;;;;;28.10;12.07;;;2.50;99.90;;;;;;5024073;28;20033;-88
2023/04/20 04:11:05;;;;;;;25.63;11.02;;;2.50;99.90;;;;;;5034175;28;20021;-88
2023/04/20 04:13:31;;;;;;;19.25;11.30;;;2.60;99.90;;;;;;5016109;28;20034;-89
2023/04/20 04:15:57;;;;;;;24.23;11.50;;;2.60;99.90;;;;;;5049165;28;20025;-88
2023/04/20 04:18:23;;;;;;;33.17;12.02;;;2.60;99.90;;;;;;5019114;28;20034;-88
2023/04/20 04:20:50;;;;;;;19.08;12.07;;;2.60;99.90;;;;;;5015688;28;20108;-89
2023/04/20 04:23:16;;;;;;;31.33;12.73;;;2.60;99.90;;;;;;5021280;28;20551;-90
2023/04/20 04:25:49;;;;;;;22.27;12.40;;;2.70;99.90;;;;;;5033187;28;20113;-89
2023/04/20 04:28:18;;;;;;;24.48;12.40;;;2.80;99.90;;;;;;5032467;28;20036;-89
2023/04/20 04:31:04;;;;;;;17.50;11.20;;;2.80;99.90;;;;;;5018665;28;20100;-89
2023/04/20 04:33:33;;;;;;;24.13;13.07;;;2.80;99.90;;;;;;5017524;28;20033;-89
2023/04/20 04:36:00;;;;;;;27.45;13.15;;;2.80;99.90;;;;;;5053738;28;20523;-89
2023/04/20 04:38:26;;;;;;;21.27;12.77;;;2.80;99.90;;;;;;5031507;28;20080;-89
2023/04/20 04:40:52;;;;;;;24.23;12.23;;;2.80;99.90;;;;;;5024263;28;20037;-89
2023/04/20 04:43:19;;;;;;;21.90;12.30;;;2.90;99.90;;;;;;5034675;28;20084;-89
2023/04/20 04:45:54;;;;;;;27.08;11.93;;;2.90;99.90;;;;;;5026981;28;20380;-89
2023/04/20 04:48:20;;;;;;;25.75;11.93;;;2.90;99.90;;;;;;5037561;28;20060;-87
2023/04/20 04:50:46;;;;;;;24.27;12.40;;;2.90;99.90;;;;;;5021132;28;20029;-89
2023/04/20 04:53:11;;;;;;;24.83;11.95;;;2.90;99.90;;;;;;5053665;28;20064;-89
2023/04/20 04:55:37;;;;;;;21.02;11.73;;;2.90;99.90;;;;;;5027941;28;20060;-89
2023/04/20 04:58:03;;;;;;;22.85;11.55;;;2.80;99.90;;;;;;5034983;28;20021;-89
2023/04/20 05:00:30;;;;;;;19.15;11.40;;;2.90;99.90;;;;;;5020969;28;20030;-89
2023/04/20 05:02:56;;;;;;;24.42;11.85;;;2.90;99.90;;;;;;5036674;28;20531;-89
2023/04/20 05:05:22;;;;;;;21.13;12.10;;;3.00;99.90;;;;;;5028591;28;20038;-89
2023/04/20 05:07:47;;;;;;;24.83;12.30;;;3.00;99.90;;;;;;5024690;28;20350;-89
2023/04/20 05:10:13;;;;;;;23.10;13.27;;;3.10;99.90;;;;;;5029165;28;20045;-89
2023/04/20 05:12:39;;;;;;;26.33;12.70;;;3.10;99.90;;;;;;5016578;28;20037;-89
2023/04/20 05:15:05;;;;;;;25.98;13.98;;;3.20;99.90;;;;;;5028519;28;20049;-90
2023/04/20 05:17:31;;;;;;;78.53;27.00;;;3.30;99.90;;;;;;5033203;28;20041;-90
2023/04/20 05:19:57;;;;;;;35.65;17.23;;;3.50;99.90;;;;;;5026238;28;20092;-90
2023/04/20 05:22:23;;;;;;;48.10;18.02;;;3.50;99.90;;;;;;5052249;28;20021;-90
2023/04/20 05:24:49;;;;;;;33.13;15.32;;;3.60;99.90;;;;;;5025911;28;20091;-90
2023/04/20 05:27:14;;;;;;;25.25;12.80;;;3.70;99.90;;;;;;5034420;28;20033;-90
2023/04/20 05:29:40;;;;;;;23.45;12.35;;;3.70;99.90;;;;;;5027264;28;20052;-89
2023/04/20 05:32:06;;;;;;;31.30;12.23;;;3.60;99.90;;;;;;5033789;28;20088;-89
2023/04/20 05:34:32;;;;;;;21.95;11.82;;;3.60;99.90;;;;;;5036185;28;20120;-90
2023/04/20 05:36:58;;;;;;;26.77;12.73;;;3.50;99.90;;;;;;5052002;28;20026;-90
2023/04/20 05:39:24;;;;;;;25.23;11.80;;;3.30;99.90;;;;;;5032652;28;20033;-89
2023/04/20 05:41:49;;;;;;;25.63;13.43;;;3.20;99.90;;;;;;5033239;28;20113;-88
2023/04/20 05:44:15;;;;;;;20.00;12.32;;;3.20;99.90;;;;;;5024335;28;20072;-90
2023/04/20 05:46:41;;;;;;;23.08;12.70;;;3.10;99.90;;;;;;5014520;28;20040;-89
2023/04/20 05:49:07;;;;;;;23.25;12.75;;;3.10;99.90;;;;;;5051798;28;20029;-89
2023/04/20 05:51:32;;;;;;;25.05;13.20;;;3.10;99.90;;;;;;5035506;28;20117;-90
2023/04/20 05:54:02;;;;;;;21.20;12.52;;;3.20;99.90;;;;;;5051953;28;20032;-90
2023/04/20 05:56:28;;;;;;;25.80;13.95;;;3.20;99.90;;;;;;5051678;28;20120;-90
2023/04/20 05:58:55;;;;;;;23.23;13.60;;;3.30;99.90;;;;;;5024715;28;20041;-90
2023/04/20 06:01:20;;;;;;;23.92;13.32;;;3.30;99.90;;;;;;5033988;28;20496;-89
2023/04/20 06:03:47;;;;;;;22.20;13.15;;;3.30;99.90;;;;;;5024725;28;20033;-89
2023/04/20 06:06:14;;;;;;;28.67;13.40;;;3.40;99.90;;;;;;5033283;28;20030;-89
2023/04/20 06:08:39;;;;;;;22.92;12.52;;;3.40;99.90;;;;;;5051852;28;20037;-90
2023/04/20 06:11:05;;;;;;;22.02;13.38;;;3.50;99.90;;;;;;5033168;28;20045;-90
2023/04/20 06:13:31;;;;;;;20.25;13.45;;;3.50;99.90;;;;;;5031055;28;20034;-90
2023/04/20 06:15:57;;;;;;;22.77;13.52;;;3.60;99.90;;;;;;5033491;28;20127;-89
2023/04/20 06:18:22;;;;;;;23.38;12.88;;;3.60;99.90;;;;;;5023418;28;20045;-90
2023/04/20 06:20:48;;;;;;;29.38;13.43;;;3.70;99.90;;;;;;5033831;28;20030;-90
2023/04/20 06:23:14;;;;;;;24.85;13.07;;;3.80;99.90;;;;;;5026924;28;20037;-89
2023/04/20 06:25:40;;;;;;;23.10;13.20;;;3.80;99.90;;;;;;5032038;28;20033;-89
2023/04/20 06:28:06;;;;;;;27.33;13.93;;;3.90;99.90;;;;;;5051525;28;20551;-89
2023/04/20 06:30:32;;;;;;;22.17;13.13;;;3.90;99.90;;;;;;5033587;28;20033;-89
2023/04/20 06:32:59;;;;;;;23.23;12.45;;;4.00;99.90;;;;;;5024307;28;20139;-89
2023/04/20 06:35:25;;;;;;;21.33;12.18;;;4.00;99.90;;;;;;5033277;28;20168;-89
2023/04/20 06:37:51;;;;;;;22.58;12.30;;;4.10;99.90;;;;;;5024626;28;20481;-89
2023/04/20 06:40:18;;;;;;;20.63;11.32;;;4.20;99.90;;;;;;5032723;28;20125;-88
2023/04/20 06:42:44;;;;;;;21.38;12.60;;;4.30;99.90;;;;;;5025092;28;20022;-89
2023/04/20 06:45:10;;;;;;;24.95;12.35;;;4.30;99.90;;;;;;5032743;28;20125;-89
2023/04/20 06:47:36;;;;;;;23.00;12.07;;;4.40;99.90;;;;;;5018349;28;20033;-89
2023/04/20 06:50:06;;;;;;;24.52;12.35;;;4.50;99.90;;;;;;5034297;28;20088;-89
2023/04/20 06:52:31;;;;;;;25.63;12.52;;;4.50;99.90;;;;;;5020696;28;20040;-89
2023/04/20 06:54:58;;;;;;;19.70;10.80;;;4.60;99.90;;;;;;5016066;28;20477;-90
2023/04/20 06:57:24;;;;;;;21.23;11.88;;;4.70;99.90;;;;;;5015136;28;20585;-89
2023/04/20 06:59:50;;;;;;;20.80;10.77;;;4.70;99.90;;;;;;5033397;28;20048;-90
2023/04/20 07:02:16;;;;;;;29.40;12.23;;;4.80;99.90;;;;;;5027730;28;20022;-90
2023/04/20 07:04:41;;;;;;;24.73;11.48;;;4.90;99.90;;;;;;5031416;28;20033;-89
2023/04/20 07:07:07;;;;;;;21.83;10.23;;;5.00;99.90;;;;;;5051112;28;20025;-90
2023/04/20 07:09:33;;;;;;;20.25;10.88;;;5.10;99.90;;;;;;5034982;28;20037;-90
2023/04/20 07:11:58;;;;;;;16.95;10.30;;;5.20;99.90;;;;;;5018413;28;21649;-90
2023/04/20 07:14:24;;;;;;;19.02;10.80;;;5.30;99.90;;;;;;5033754;28;20026;-90
2023/04/20 07:16:53;;;;;;;19.50;10.23;;;5.30;99.90;;;;;;5025087;28;20030;-90
2023/04/20 07:19:19;;;;;;;17.80;9.27;;;5.50;99.90;;;;;;5031720;28;20033;-90
2023/04/20 07:21:45;;;;;;;15.45;9.80;;;5.70;99.90;;;;;;5017675;28;20437;-89
2023/04/20 07:24:11;;;;;;;23.70;10.02;;;5.80;99.90;;;;;;5034324;28;20045;-90
2023/04/20 07:26:37;;;;;;;26.40;12.88;;;5.80;99.90;;;;;;5019276;28;20041;-89
2023/04/20 07:29:03;;;;;;;16.65;10.10;;;5.90;99.90;;;;;;5033551;28;20381;-90
2023/04/20 07:31:30;;;;;;;18.27;10.90;;;6.10;99.90;;;;;;5021673;28;20763;-89
2023/04/20 07:33:56;;;;;;;15.35;10.32;;;6.10;99.90;;;;;;5015725;28;20028;-90
2023/04/20 07:36:22;;;;;;;16.27;10.60;;;6.20;99.90;;;;;;5026731;28;20025;-89
2023/04/20 07:38:48;;;;;;;17.48;10.88;;;6.20;99.90;;;;;;5014346;28;20079;-89
2023/04/20 07:41:14;;;;;;;16.98;11.27;;;6.30;99.90;;;;;;5013501;28;20120;-90
2023/04/20 07:43:40;;;;;;;22.67;10.68;;;6.40;99.90;;;;;;5029718;28;20920;-89
2023/04/20 07:46:07;;;;;;;16.00;10.40;;;6.40;99.90;;;;;;5022147;28;20029;-89
2023/04/20 07:48:33;;;;;;;23.05;12.02;;;6.40;99.90;;;;;;5029413;28;20029;-88
2023/04/20 07:51:14;;;;;;;36.72;12.48;;;6.30;99.90;;;;;;5024115;28;20033;-90
2023/04/20 07:53:41;;;;;;;19.50;11.60;;;6.30;99.90;;;;;;5034415;28;20039;-90
2023/04/20 07:56:07;;;;;;;23.73;11.95;;;6.20;99.90;;;;;;5016813;28;20037;-89
2023/04/20 07:58:33;;;;;;;21.05;11.90;;;6.20;99.90;;;;;;5031564;28;20062;-89
2023/04/20 08:00:59;;;;;;;21.23;12.43;;;6.10;99.90;;;;;;5016527;28;20497;-90
2023/04/20 08:03:26;;;;;;;19.65;12.93;;;6.20;99.90;;;;;;5033800;28;20030;-89
2023/04/20 08:05:51;;;;;;;20.02;11.27;;;6.20;99.90;;;;;;5015803;28;20489;-89
2023/04/20 08:08:17;;;;;;;19.27;10.65;;;6.30;99.90;;;;;;5031022;28;20037;-89
2023/04/20 08:10:43;;;;;;;19.30;10.60;;;6.50;99.90;;;;;;5030411;28;20037;-90
2023/04/20 08:13:09;;;;;;;17.90;11.68;;;6.60;99.90;;;;;;5030660;28;20030;-89
2023/04/20 08:15:35;;;;;;;22.23;11.02;;;6.60;99.90;;;;;;5025147;28;20099;-89
2023/04/20 08:18:00;;;;;;;22.25;10.82;;;6.60;99.90;;;;;;5014288;28;20022;-89
2023/04/20 08:20:57;;;;;;;18.23;10.35;;;6.70;99.90;;;;;;5027308;28;20084;-89
2023/04/20 08:23:26;;;;;;;18.00;9.85;;;6.80;99.90;;;;;;5010963;28;20030;-88
2023/04/20 08:25:55;;;;;;;17.85;10.55;;;7.00;99.90;;;;;;5032216;28;20168;-89
2023/04/20 08:28:22;;;;;;;17.65;9.63;;;7.20;99.90;;;;;;5049932;28;20115;-89
2023/04/20 08:30:50;;;;;;;21.70;10.85;;;7.20;99.90;;;;;;5030619;28;20049;-88
2023/04/20 08:33:16;;;;;;;18.88;9.80;;;7.20;99.90;;;;;;5033893;28;20030;-88
2023/04/20 08:35:42;;;;;;;16.65;9.32;;;7.30;99.90;;;;;;5031162;28;20022;-88
2023/04/20 08:38:09;;;;;;;15.68;9.00;;;7.40;99.90;;;;;;5048830;28;20056;-88
2023/04/20 08:40:35;;;;;;;14.80;8.30;;;7.40;99.90;;;;;;5029822;28;20032;-88
2023/04/20 08:43:01;;;;;;;14.52;9.05;;;7.70;99.90;;;;;;5013978;28;20390;-89
2023/04/20 08:45:29;;;;;;;20.50;8.55;;;7.90;99.90;;;;;;5036280;28;20025;-88
2023/04/20 08:47:57;;;;;;;13.35;7.07;;;8.20;99.90;;;;;;5016726;28;20026;-88
2023/04/20 08:50:23;;;;;;;17.98;7.95;;;8.30;99.90;;;;;;5030286;28;20042;-89
2023/04/20 08:52:48;;;;;;;21.08;8.52;;;8.30;99.90;;;;;;5013110;28;20440;-88
2023/04/20 08:55:18;;;;;;;15.93;8.95;;;8.30;99.90;;;;;;5029330;28;20034;-89
2023/04/20 08:57:46;;;;;;;11.15;8.05;;;8.30;99.90;;;;;;5029767;28;20029;-89
2023/04/20 09:00:13;;;;;;;11.00;7.63;;;8.60;99.90;;;;;;5029256;28;20052;-89
2023/04/20 09:02:50;;;;;;;13.68;8.38;;;9.30;99.90;;;;;;5028956;28;20025;-89
2023/04/20 09:05:24;;;;;;;12.85;8.50;;;10.20;99.90;;;;;;5016162;28;20037;-89
2023/04/20 09:08:05;;;;;;;16.58;8.73;;;10.00;99.90;;;;;;5012060;28;20038;-89
2023/04/20 09:10:44;;;;;;;14.75;8.90;;;9.50;99.90;;;;;;5013447;28;20485;-89
2023/04/20 09:13:22;;;;;;;16.90;8.18;;;9.60;99.90;;;;;;5036610;28;20376;-89
2023/04/20 09:15:48;;;;;;;13.10;7.60;;;11.10;99.90;;;;;;5031711;28;20780;-89
2023/04/20 09:18:14;;;;;;;14.73;8.00;;;12.00;99.90;;;;;;5029485;28;20112;-89
2023/04/20 09:20:40;;;;;;;11.93;7.30;;;13.60;99.90;;;;;;5032809;28;20033;-89
2023/04/20 09:23:14;;;;;;;16.63;8.07;;;15.20;99.90;;;;;;5025175;28;21331;-90
2023/04/20 09:25:42;;;;;;;9.90;7.47;;;15.80;99.70;;;;;;5019540;28;20040;-90
2023/04/20 09:28:39;;;;;;;14.15;7.50;;;15.50;98.70;;;;;;5026110;28;20025;-90
2023/04/20 09:31:05;;;;;;;13.43;7.80;;;16.50;97.90;;;;;;5035595;28;20380;-90
2023/04/20 09:33:32;;;;;;;12.18;7.65;;;16.40;93.50;;;;;;5053147;28;20034;-89
2023/04/20 09:36:04;;;;;;;16.70;8.65;;;15.60;93.50;;;;;;5034109;28;20123;-90
2023/04/20 09:38:36;;;;;;;10.55;7.10;;;14.90;94.30;;;;;;5033957;28;20026;-90
2023/04/20 09:41:03;;;;;;;9.85;6.95;;;14.10;95.30;;;;;;5026400;28;20026;-89
2023/04/20 09:43:32;;;;;;;11.23;7.22;;;13.90;95.10;;;;;;5034658;28;20655;-89
2023/04/20 09:45:58;;;;;;;12.02;7.93;;;12.80;97.60;;;;;;5027868;28;20025;-90
2023/04/20 09:48:24;;;;;;;17.63;9.13;;;11.70;99.90;;;;;;5054708;28;20419;-89
2023/04/20 09:50:51;;;;;;;11.65;7.53;;;11.20;99.90;;;;;;5021048;28;20056;-89
2023/04/20 09:53:17;;;;;;;14.60;8.23;;;11.50;99.90;;;;;;5035604;28;20099;-91
2023/04/20 09:55:50;;;;;;;11.65;7.30;;;12.10;99.90;;;;;;5023687;28;20034;-89
2023/04/20 09:58:19;;;;;;;10.35;7.72;;;12.00;99.90;;;;;;5033952;28;20022;-90
2023/04/20 10:00:45;;;;;;;11.15;7.40;;;11.90;99.90;;;;;;5016652;28;20470;-90
2023/04/20 10:03:18;;;;;;;14.43;8.85;;;11.30;99.90;;;;;;5020628;28;20037;-90
2023/04/20 10:05:44;;;;;;;12.57;9.32;;;10.20;99.90;;;;;;5028994;28;20168;-89
2023/04/20 10:08:10;;;;;;;12.43;8.68;;;10.10;99.90;;;;;;5034397;28;20117;-90
2023/04/20 10:10:49;;;;;;;12.18;8.00;;;11.20;99.90;;;;;;5029901;28;20037;-90
2023/04/20 10:13:18;;;;;;;11.27;8.55;;;11.90;99.90;;;;;;5011341;28;20026;-90
2023/04/20 10:15:43;;;;;;;13.95;9.45;;;11.70;99.90;;;;;;5031430;28;20034;-90
2023/04/20 10:18:22;;;;;;;14.50;8.52;;;11.30;99.90;;;;;;5023909;28;20039;-89
2023/04/20 10:20:48;;;;;;;14.13;9.27;;;11.30;99.90;;;;;;5035170;28;20028;-89
2023/04/20 10:23:15;;;;;;;12.75;9.15;;;11.10;99.90;;;;;;5020644;28;20030;-90
2023/04/20 10:25:43;;;;;;;14.63;8.85;;;11.00;99.90;;;;;;5011879;28;20113;-90
2023/04/20 10:28:09;;;;;;;14.55;8.90;;;11.00;99.90;;;;;;5033372;28;20022;-89
2023/04/20 10:30:36;;;;;;;12.95;9.30;;;11.20;99.90;;;;;;5033972;28;20081;-90
2023/04/20 10:33:10;;;;;;;15.18;9.18;;;10.70;99.90;;;;;;5025892;28;20117;-89
2023/04/20 10:35:48;;;;;;;14.15;8.68;;;10.10;99.90;;;;;;5034396;28;20067;-90
2023/04/20 10:38:15;;;;;;;19.58;12.32;;;9.80;99.90;;;;;;5034961;28;20056;-90
2023/04/20 10:40:41;;;;;;;16.48;9.43;;;9.80;99.90;;;;;;5031167;28;20488;-91
2023/04/20 10:43:22;;;;;;;11.43;9.13;;;10.10;99.90;;;;;;5031536;28;20030;-89
2023/04/20 10:45:49;;;;;;;20.10;10.25;;;10.20;99.90;;;;;;5027711;28;20045;-90
2023/04/20 10:48:15;;;;;;;14.73;9.10;;;10.20;99.90;;;;;;5026069;28;20718;-89
2023/04/20 10:50:41;;;;;;;14.52;9.63;;;10.40;99.90;;;;;;5050891;28;20030;-90
2023/04/20 10:53:21;;;;;;;13.07;9.15;;;10.40;99.90;;;;;;5029091;28;20029;-89
2023/04/20 10:55:56;;;;;;;13.02;9.07;;;10.00;99.90;;;;;;5021315;28;20424;-89
2023/04/20 10:58:23;;;;;;;12.35;8.75;;;9.90;99.90;;;;;;5012422;28;20108;-89
2023/04/20 11:01:03;;;;;;;11.25;8.00;;;9.80;99.90;;;;;;5030765;28;20477;-89
2023/04/20 11:03:31;;;;;;;15.82;9.02;;;10.20;99.90;;;;;;5031139;28;20026;-89
2023/04/20 11:06:01;;;;;;;12.68;9.38;;;10.40;99.90;;;;;;5030949;28;20552;-90
2023/04/20 11:08:40;;;;;;;18.25;10.38;;;9.80;99.90;;;;;;5024021;28;20092;-89
2023/04/20 11:11:27;;;;;;;21.23;11.20;;;9.50;99.90;;;;;;5032652;28;20072;-90
2023/04/20 11:14:07;;;;;;;17.60;10.77;;;9.20;99.90;;;;;;5031857;28;20025;-89
2023/04/20 11:16:33;;;;;;;18.30;10.55;;;9.40;99.90;;;;;;5019193;28;20030;-90
2023/04/20 11:18:59;;;;;;;17.80;9.80;;;9.70;99.90;;;;;;5036215;28;20497;-90
2023/04/20 11:21:38;;;;;;;16.25;9.45;;;10.00;99.90;;;;;;5024973;28;20026;-89
2023/04/20 11:24:20;;;;;;;17.33;10.05;;;9.80;99.90;;;;;;5032018;28;20071;-89
2023/04/20 11:26:49;;;;;;;16.70;10.40;;;9.50;99.90;;;;;;5027213;28;20022;-90
2023/04/20 11:29:35;;;;;;;14.45;10.52;;;9.30;99.90;;;;;;5032879;28;20029;-90
2023/04/20 11:32:06;;;;;;;21.02;11.02;;;9.20;99.90;;;;;;5029350;28;20041;-90
2023/04/20 11:34:34;;;;;;;16.38;10.43;;;9.40;99.90;;;;;;5023475;28;20026;-90
2023/04/20 11:37:12;;;;;;;17.70;10.55;;;9.80;99.90;;;;;;5029300;28;20026;-90
2023/04/20 11:39:38;;;;;;;18.80;9.48;;;10.20;99.90;;;;;;5026512;28;20749;-89
2023/04/20 11:42:22;;;;;;;12.32;8.20;;;9.80;99.90;;;;;;5030890;28;20025;-90
2023/04/20 11:44:48;;;;;;;13.57;8.25;;;9.70;99.90;;;;;;5033785;28;20056;-89
2023/04/20 11:47:13;;;;;;;10.73;7.43;;;9.80;99.90;;;;;;5016659;28;20481;-89
2023/04/20 11:49:39;;;;;;;17.85;9.05;;;9.80;99.90;;;;;;5033643;28;20030;-90
2023/04/20 11:52:05;;;;;;;16.52;9.32;;;10.20;99.90;;;;;;5031866;28;20819;-90
2023/04/20 11:54:33;;;;;;;16.15;9.80;;;10.30;99.90;;;;;;5029034;28;20042;-89
2023/04/20 11:56:59;;;;;;;14.63;7.78;;;10.50;99.90;;;;;;5033136;28;20533;-90
2023/04/20 11:59:25;;;;;;;15.70;8.73;;;10.50;99.90;;;;;;5033773;28;20084;-90
2023/04/20 12:01:51;;;;;;;12.63;8.35;;;10.50;99.90;;;;;;5017805;28;20025;-91
2023/04/20 12:04:17;;;;;;;10.77;7.63;;;10.60;99.90;;;;;;5020477;28;20030;-90
2023/04/20 12:06:43;;;;;;;12.35;8.13;;;10.40;99.90;;;;;;5030789;28;20044;-90
2023/04/20 12:09:08;;;;;;;10.80;8.13;;;10.30;99.90;;;;;;5016010;28;20022;-90
2023/04/20 12:11:34;;;;;;;13.70;8.32;;;10.30;99.90;;;;;;5031020;28;20354;-89
2023/04/20 12:14:00;;;;;;;14.43;8.48;;;10.50;99.90;;;;;;5014836;28;20055;-89
2023/04/20 12:16:26;;;;;;;16.88;8.98;;;10.40;99.90;;;;;;5029506;28;20034;-90
2023/04/20 12:18:51;;;;;;;15.13;9.13;;;10.40;99.90;;;;;;5029769;28;20021;-89
2023/04/20 12:21:17;;;;;;;15.18;10.13;;;10.70;99.90;;;;;;5022363;28;20051;-89
2023/04/20 12:23:43;;;;;;;14.48;9.25;;;10.80;99.90;;;;;;5024917;28;20088;-90
2023/04/20 12:26:09;;;;;;;13.40;8.82;;;10.90;99.90;;;;;;5032758;28;20477;-90
2023/04/20 12:28:34;;;;;;;14.13;9.40;;;10.80;99.90;;;;;;5030524;28;20080;-89
2023/04/20 12:31:01;;;;;;;15.50;8.55;;;10.60;99.90;;;;;;5033438;28;20033;-90
2023/04/20 12:33:27;;;;;;;10.68;7.97;;;10.30;99.90;;;;;;5030105;28;20477;-90
2023/04/20 12:35:53;;;;;;;13.25;9.32;;;10.20;99.90;;;;;;5015887;28;20033;-89
2023/04/20 12:38:18;;;;;;;12.65;8.63;;;9.90;99.90;;;;;;5018142;28;20045;-89
2023/04/20 12:40:44;;;;;;;14.95;9.73;;;9.40;99.90;;;;;;5030868;28;20080;-90
2023/04/20 12:43:10;;;;;;;17.38;11.25;;;9.20;99.90;;;;;;5015195;28;20479;-89
2023/04/20 12:45:35;;;;;;;17.70;11.27;;;8.80;99.90;;;;;;5029387;28;20030;-89